Time;durP1;ratioP1;P1;durP2;ratioP2;P2;SDS_P1;SDS_P2;PMS_P1;PMS_P2;Temp;Humidity;BMP_temperature;BMP_pressure;BME280_temperature;BME280_humidity;BME280_pressure;Samples;Min_cycle;Max_cycle;Signal;HPM_P1;HPM_P2
2022/09/12 00:00:17;;;;;;;3.38;2.13;;;11.70;70.40;;;;;;4113718;28;20037;-85
2022/09/12 00:02:18;;;;;;;3.13;1.90;;;11.70;69.70;;;;;;4112064;28;20738;-85
2022/09/12 00:04:19;;;;;;;3.00;2.10;;;11.70;69.80;;;;;;4110342;28;20441;-85
2022/09/12 00:06:23;;;;;;;2.47;1.92;;;11.70;69.80;;;;;;4113882;28;20620;-85
2022/09/12 00:08:23;;;;;;;3.88;2.08;;;11.70;69.70;;;;;;4114590;28;20168;-85
2022/09/12 00:10:24;;;;;;;7.95;2.00;;;11.60;69.60;;;;;;4116032;28;20089;-86
2022/09/12 00:12:25;;;;;;;4.15;1.90;;;11.60;69.50;;;;;;4112224;28;20022;-86
2022/09/12 00:14:26;;;;;;;3.75;2.22;;;11.70;69.50;;;;;;4114236;28;20045;-85
2022/09/12 00:16:30;;;;;;;4.43;2.13;;;11.60;69.40;;;;;;4115502;28;20683;-86
2022/09/12 00:18:32;;;;;;;3.17;1.80;;;11.50;69.40;;;;;;4113802;28;20049;-85
2022/09/12 00:20:32;;;;;;;5.07;2.00;;;11.60;69.50;;;;;;4112641;28;20038;-86
2022/09/12 00:22:34;;;;;;;3.53;1.83;;;11.50;69.50;;;;;;4102360;28;20038;-84
2022/09/12 00:24:34;;;;;;;2.78;1.85;;;11.50;69.60;;;;;;4109649;28;20033;-85
2022/09/12 00:26:35;;;;;;;2.72;2.15;;;11.50;69.70;;;;;;4114472;28;20383;-86
2022/09/12 00:28:37;;;;;;;3.42;2.10;;;11.50;69.80;;;;;;4117588;28;20747;-83
2022/09/12 00:30:42;;;;;;;3.45;2.20;;;11.50;69.70;;;;;;4117680;28;20203;-85
2022/09/12 00:32:43;;;;;;;2.95;2.00;;;11.50;69.70;;;;;;4114693;28;20026;-86
2022/09/12 00:34:44;;;;;;;3.45;1.90;;;11.40;69.70;;;;;;4113777;28;20107;-85
2022/09/12 00:36:44;;;;;;;3.33;1.77;;;11.40;69.80;;;;;;4114388;28;20038;-84
2022/09/12 00:38:46;;;;;;;4.97;1.85;;;11.40;69.80;;;;;;4111913;28;20101;-86
2022/09/12 00:40:48;;;;;;;3.83;2.10;;;11.30;69.90;;;;;;4115521;28;20056;-86
2022/09/12 00:42:49;;;;;;;3.15;2.30;;;11.30;69.90;;;;;;4114482;28;20030;-84
2022/09/12 00:44:51;;;;;;;2.60;2.00;;;11.30;70.00;;;;;;4114888;28;20084;-85
2022/09/12 00:46:59;;;;;;;5.00;1.80;;;11.30;69.90;;;;;;4114179;28;20022;-84
2022/09/12 00:49:13;;;;;;;4.72;2.40;;;11.30;69.90;;;;;;4115575;28;20289;-85
2022/09/12 00:51:15;;;;;;;2.72;2.08;;;11.20;69.90;;;;;;4116092;28;20042;-85
2022/09/12 00:53:16;;;;;;;2.30;1.70;;;11.30;70.00;;;;;;4116887;28;20045;-85
2022/09/12 00:55:28;;;;;;;4.53;1.95;;;11.30;70.10;;;;;;4127675;28;20057;-85
2022/09/12 00:57:34;;;;;;;4.97;1.90;;;11.20;70.20;;;;;;4124239;28;20034;-85
2022/09/12 00:59:44;;;;;;;2.75;1.73;;;11.20;70.10;;;;;;4114796;28;20022;-86
2022/09/12 01:01:48;;;;;;;4.93;1.90;;;11.10;70.20;;;;;;4113316;28;20050;-84
2022/09/12 01:03:49;;;;;;;2.80;1.67;;;11.10;70.10;;;;;;4113706;28;20030;-86
2022/09/12 01:05:55;;;;;;;3.15;1.92;;;11.20;70.20;;;;;;4113517;28;20116;-85
2022/09/12 01:07:56;;;;;;;4.70;1.70;;;11.10;70.10;;;;;;4111297;28;20042;-85
2022/09/12 01:09:57;;;;;;;4.50;1.98;;;11.10;70.10;;;;;;4115399;28;20045;-85
2022/09/12 01:12:00;;;;;;;5.07;2.10;;;11.00;70.10;;;;;;4116222;28;21363;-85
2022/09/12 01:14:00;;;;;;;4.63;1.80;;;11.10;70.20;;;;;;4115637;28;20657;-87
2022/09/12 01:16:04;;;;;;;6.63;2.17;;;11.00;70.00;;;;;;4112895;28;20045;-86
2022/09/12 01:18:21;;;;;;;2.28;1.67;;;11.00;70.00;;;;;;4114234;28;20038;-86
2022/09/12 01:20:58;;;;;;;4.10;2.13;;;11.00;70.00;;;;;;4113801;28;20602;-85
2022/09/12 01:23:33;;;;;;;4.70;1.90;;;10.90;70.10;;;;;;4117992;28;20096;-85
2022/09/12 01:26:14;;;;;;;3.58;1.83;;;10.90;70.10;;;;;;4116827;28;20499;-86
2022/09/12 01:28:29;;;;;;;5.30;2.10;;;10.90;70.00;;;;;;4111576;28;20135;-84
2022/09/12 01:30:51;;;;;;;4.55;1.98;;;10.90;69.90;;;;;;4113034;28;20042;-85
2022/09/12 01:32:52;;;;;;;2.35;1.55;;;10.80;69.80;;;;;;4115066;28;20030;-84
2022/09/12 01:35:23;;;;;;;3.88;1.77;;;10.90;69.80;;;;;;4102787;28;20031;-83
2022/09/12 01:37:37;;;;;;;5.90;2.15;;;10.80;70.10;;;;;;4112121;28;20130;-85
2022/09/12 01:39:59;;;;;;;2.53;1.80;;;10.80;70.00;;;;;;4130339;28;20085;-84
2022/09/12 01:42:39;;;;;;;5.22;1.60;;;10.70;70.00;;;;;;4115127;28;20035;-85
2022/09/12 01:44:55;;;;;;;7.13;1.70;;;10.70;70.30;;;;;;4116339;28;20658;-85
2022/09/12 01:47:07;;;;;;;3.08;1.92;;;10.80;70.30;;;;;;4113939;28;20038;-85
2022/09/12 01:49:31;;;;;;;2.47;1.88;;;10.70;70.20;;;;;;4114768;28;21572;-85
2022/09/12 01:51:37;;;;;;;;;;;10.60;70.30;;;;;;4119426;28;20058;-86
2022/09/12 01:53:43;;;;;;;2.58;1.80;;;10.70;70.80;;;;;;4120127;28;19917;-86
2022/09/12 01:55:52;;;;;;;5.35;1.73;;;10.60;70.00;;;;;;4118352;28;20038;-84
2022/09/12 01:58:08;;;;;;;3.75;1.70;;;10.60;70.20;;;;;;4116218;28;20045;-83
2022/09/12 02:00:11;;;;;;;2.65;1.83;;;10.70;70.30;;;;;;4116263;28;20080;-84
2022/09/12 02:02:14;;;;;;;2.53;1.70;;;10.60;70.30;;;;;;4119350;28;20388;-83
2022/09/12 02:04:26;;;;;;;3.80;2.00;;;10.50;70.30;;;;;;4120003;28;20034;-84
2022/09/12 02:06:37;;;;;;;2.57;1.90;;;10.50;71.20;;;;;;4118933;28;20977;-84
2022/09/12 02:08:45;;;;;;;2.72;1.80;;;10.60;70.60;;;;;;4119213;28;20157;-84
2022/09/12 02:10:53;;;;;;;7.45;1.73;;;10.50;70.60;;;;;;4118325;28;20062;-85
2022/09/12 02:13:10;;;;;;;3.70;2.08;;;10.50;70.70;;;;;;4119555;28;20441;-84
2022/09/12 02:15:13;;;;;;;4.78;2.25;;;10.50;70.70;;;;;;4117917;28;20049;-84
2022/09/12 02:17:18;;;;;;;5.72;2.28;;;10.50;70.70;;;;;;4114138;28;20058;-84
2022/09/12 02:19:22;;;;;;;4.60;1.85;;;10.40;70.80;;;;;;4118375;28;21385;-85
2022/09/12 02:21:26;;;;;;;3.63;1.77;;;10.40;70.80;;;;;;4115368;28;20768;-85
2022/09/12 02:23:30;;;;;;;2.83;1.95;;;10.40;70.70;;;;;;4117899;28;20109;-84
2022/09/12 02:25:31;;;;;;;2.70;1.98;;;10.40;70.70;;;;;;4114982;28;20034;-84
2022/09/12 02:27:37;;;;;;;2.47;1.85;;;10.40;70.70;;;;;;4133421;28;20050;-84
2022/09/12 02:29:38;;;;;;;4.85;2.40;;;10.40;70.70;;;;;;4115460;28;20034;-84
2022/09/12 02:31:52;;;;;;;4.18;1.80;;;10.50;70.80;;;;;;4115999;28;20038;-84
2022/09/12 02:34:27;;;;;;;2.55;1.80;;;10.30;70.70;;;;;;4113753;28;20053;-86
2022/09/12 02:36:42;;;;;;;3.58;1.63;;;10.30;71.00;;;;;;4113637;28;20062;-85
2022/09/12 02:38:45;;;;;;;2.67;1.90;;;10.30;71.00;;;;;;4114986;28;20080;-84
2022/09/12 02:40:46;;;;;;;7.45;1.75;;;10.30;71.00;;;;;;4112617;28;21628;-86
2022/09/12 02:42:46;;;;;;;5.40;1.73;;;10.30;71.10;;;;;;4114828;28;20030;-85
2022/09/12 02:44:48;;;;;;;2.83;1.70;;;10.30;71.10;;;;;;4106526;28;20026;-85
2022/09/12 02:46:54;;;;;;;6.20;1.80;;;10.20;71.10;;;;;;4128078;28;20040;-85
2022/09/12 02:48:56;;;;;;;3.47;1.90;;;10.20;71.20;;;;;;4115939;28;20030;-83
2022/09/12 02:50:57;;;;;;;4.82;1.63;;;10.20;71.20;;;;;;4129255;28;20037;-84
2022/09/12 02:53:03;;;;;;;2.65;1.90;;;10.30;71.30;;;;;;4116326;28;20364;-84
2022/09/12 02:55:05;;;;;;;5.07;1.88;;;10.20;71.40;;;;;;4113156;28;20045;-85
2022/09/12 02:57:16;;;;;;;3.15;2.00;;;10.20;71.20;;;;;;4110230;28;20125;-84
2022/09/12 02:59:19;;;;;;;2.38;1.90;;;10.20;71.40;;;;;;4112863;28;20082;-84
2022/09/12 03:01:25;;;;;;;;;;;10.10;71.20;;;;;;4111654;28;20130;-85
2022/09/12 03:03:51;;;;;;;5.93;2.00;;;10.20;72.50;;;;;;4112605;28;20017;-85
2022/09/12 03:05:59;;;;;;;1.80;1.50;;;10.10;71.10;;;;;;4114754;28;20465;-85
2022/09/12 03:08:05;;;;;;;5.85;2.03;;;10.10;71.10;;;;;;4064922;28;1541530;-84
2022/09/12 03:10:18;;;;;;;5.10;1.70;;;10.10;71.10;;;;;;4117770;28;20134;-85
2022/09/12 03:12:49;;;;;;;5.15;1.88;;;10.10;71.20;;;;;;4117939;28;20081;-85
2022/09/12 03:15:27;;;;;;;2.78;1.88;;;10.10;71.30;;;;;;4118674;28;20037;-84
2022/09/12 03:17:54;;;;;;;4.05;2.03;;;10.00;71.50;;;;;;4116237;28;20497;-83
2022/09/12 03:20:04;;;;;;;2.83;2.08;;;10.00;71.20;;;;;;4118317;28;20558;-84
2022/09/12 03:22:37;;;;;;;2.13;1.67;;;10.10;71.30;;;;;;4114614;28;20030;-84
2022/09/12 03:24:48;;;;;;;2.47;1.77;;;10.00;71.50;;;;;;4114838;28;20454;-83
2022/09/12 03:26:54;;;;;;;4.82;2.00;;;10.00;71.40;;;;;;4113413;28;20136;-83
2022/09/12 03:28:55;;;;;;;4.72;2.03;;;10.00;71.50;;;;;;4114250;28;20141;-85
2022/09/12 03:30:56;;;;;;;3.42;2.08;;;10.00;71.40;;;;;;4126515;28;20542;-85
2022/09/12 03:32:57;;;;;;;3.35;1.80;;;9.90;71.30;;;;;;4114075;28;20027;-85
2022/09/12 03:34:58;;;;;;;6.63;1.98;;;10.00;71.40;;;;;;4115503;28;20253;-84
2022/09/12 03:36:59;;;;;;;3.92;2.10;;;9.90;71.40;;;;;;4115662;28;20514;-85
2022/09/12 03:38:59;;;;;;;3.92;1.80;;;9.90;71.40;;;;;;4127885;28;20061;-83
2022/09/12 03:41:00;;;;;;;2.00;1.55;;;9.90;71.40;;;;;;4108600;28;20030;-84
2022/09/12 03:43:01;;;;;;;4.68;2.00;;;9.90;71.50;;;;;;4098187;28;20126;-85
2022/09/12 03:45:02;;;;;;;3.08;1.80;;;9.90;71.60;;;;;;4112163;28;20035;-84
2022/09/12 03:47:02;;;;;;;3.72;1.50;;;9.80;71.60;;;;;;4110567;28;20670;-84
2022/09/12 03:49:03;;;;;;;4.20;1.50;;;9.80;71.60;;;;;;4110941;28;20045;-83
2022/09/12 03:51:06;;;;;;;3.15;1.83;;;9.80;71.70;;;;;;4112476;28;20034;-84
2022/09/12 03:53:07;;;;;;;;;;;9.80;71.70;;;;;;4114272;28;20688;-84
2022/09/12 03:55:08;;;;;;;3.25;1.33;;;9.80;72.20;;;;;;4113992;28;19961;-82
2022/09/12 03:57:09;;;;;;;3.13;1.80;;;9.80;71.60;;;;;;4117024;28;20034;-83
2022/09/12 03:59:10;;;;;;;2.78;1.95;;;9.80;71.60;;;;;;4117389;28;20041;-85
2022/09/12 04:01:16;;;;;;;3.15;1.95;;;9.80;71.60;;;;;;4114188;28;20038;-82
2022/09/12 04:03:18;;;;;;;4.07;2.00;;;9.90;71.70;;;;;;4108627;28;20035;-85
2022/09/12 04:05:18;;;;;;;3.20;2.05;;;9.70;71.50;;;;;;4114395;28;20038;-83
2022/09/12 04:07:19;;;;;;;4.70;1.65;;;9.70;71.50;;;;;;4115924;28;20048;-84
2022/09/12 04:09:20;;;;;;;5.50;1.92;;;9.80;71.50;;;;;;4119203;28;20061;-84
2022/09/12 04:11:21;;;;;;;4.25;1.90;;;9.70;71.50;;;;;;4118981;28;20027;-84
2022/09/12 04:13:22;;;;;;;3.35;1.75;;;9.70;71.50;;;;;;4118841;28;20127;-84
2022/09/12 04:15:23;;;;;;;3.08;1.67;;;9.70;71.50;;;;;;4138470;28;20034;-85
2022/09/12 04:17:23;;;;;;;2.10;1.40;;;9.80;71.60;;;;;;4128222;28;20064;-84
2022/09/12 04:19:25;;;;;;;3.92;1.90;;;9.60;71.40;;;;;;4107909;28;20506;-84
2022/09/12 04:21:26;;;;;;;3.13;1.88;;;9.60;71.50;;;;;;4112741;28;20034;-86
2022/09/12 04:23:26;;;;;;;6.15;1.65;;;9.60;71.50;;;;;;4116694;28;20517;-85
2022/09/12 04:25:28;;;;;;;2.72;1.75;;;9.60;71.50;;;;;;4120421;28;20058;-87
2022/09/12 04:27:29;;;;;;;3.30;1.75;;;9.60;71.50;;;;;;4116203;28;20037;-86
2022/09/12 04:29:30;;;;;;;2.33;1.55;;;9.60;71.50;;;;;;4121776;28;20731;-87
2022/09/12 04:31:31;;;;;;;4.28;1.75;;;9.60;71.50;;;;;;4118028;28;21091;-86
2022/09/12 04:33:31;;;;;;;3.42;1.90;;;9.50;71.50;;;;;;4133415;28;20065;-84
2022/09/12 04:35:34;;;;;;;2.60;1.90;;;9.60;71.70;;;;;;4102428;28;20039;-83
2022/09/12 04:37:35;;;;;;;4.65;2.05;;;9.50;71.70;;;;;;4097346;28;20518;-82
2022/09/12 04:39:36;;;;;;;3.70;1.88;;;9.60;71.90;;;;;;4118175;28;20058;-83
2022/09/12 04:41:38;;;;;;;6.40;1.90;;;9.60;71.90;;;;;;4113258;28;20039;-83
2022/09/12 04:43:39;;;;;;;5.90;1.87;;;9.60;72.00;;;;;;4117574;28;20790;-83
2022/09/12 04:45:40;;;;;;;3.63;1.73;;;9.50;72.00;;;;;;4118288;28;20031;-83
2022/09/12 04:47:41;;;;;;;3.33;1.90;;;9.60;72.10;;;;;;4129023;28;20110;-82
2022/09/12 04:49:42;;;;;;;4.32;2.00;;;9.50;72.10;;;;;;4118757;28;20045;-83
2022/09/12 04:51:42;;;;;;;2.53;1.90;;;9.50;72.10;;;;;;4114733;28;20046;-83
2022/09/12 04:53:49;;;;;;;6.20;2.28;;;9.50;72.10;;;;;;4115416;28;20043;-84
2022/09/12 04:55:49;;;;;;;5.75;2.33;;;9.60;72.10;;;;;;4112559;28;20031;-83
2022/09/12 04:57:51;;;;;;;4.85;2.08;;;9.50;72.10;;;;;;4112947;28;20937;-83
2022/09/12 04:59:51;;;;;;;7.75;3.38;;;9.50;72.20;;;;;;4118274;28;20403;-84
2022/09/12 05:01:52;;;;;;;7.85;3.50;;;9.50;72.30;;;;;;4114571;28;20030;-85
2022/09/12 05:03:54;;;;;;;7.88;2.90;;;9.60;72.50;;;;;;4101739;28;20182;-83
2022/09/12 05:05:54;;;;;;;3.97;2.45;;;9.50;72.60;;;;;;4118502;28;21325;-85
2022/09/12 05:07:55;;;;;;;5.57;2.58;;;9.50;72.70;;;;;;4114477;28;20030;-83
2022/09/12 05:09:56;;;;;;;4.22;2.45;;;9.50;72.70;;;;;;4130587;28;20022;-83
2022/09/12 05:11:58;;;;;;;5.45;2.60;;;9.50;72.80;;;;;;4116174;28;20525;-85
2022/09/12 05:13:58;;;;;;;3.33;2.50;;;9.50;72.90;;;;;;4114995;28;20248;-84
2022/09/12 05:16:01;;;;;;;4.05;2.97;;;9.50;73.00;;;;;;4117223;28;20054;-85
2022/09/12 05:18:02;;;;;;;5.60;2.90;;;9.50;73.00;;;;;;4114693;28;20605;-84
2022/09/12 05:20:03;;;;;;;3.47;2.70;;;9.50;73.10;;;;;;4100821;28;20031;-84
2022/09/12 05:22:05;;;;;;;4.90;2.70;;;9.50;73.10;;;;;;4115085;28;20022;-85
2022/09/12 05:24:06;;;;;;;6.90;2.60;;;9.60;73.30;;;;;;4103113;28;20169;-83
2022/09/12 05:26:11;;;;;;;6.03;2.58;;;9.60;73.40;;;;;;4099440;28;20035;-83
2022/09/12 05:28:11;;;;;;;8.02;3.15;;;9.60;73.70;;;;;;4111829;28;20037;-84
2022/09/12 05:30:12;;;;;;;3.70;2.47;;;9.60;73.80;;;;;;4113621;28;20093;-84
2022/09/12 05:32:13;;;;;;;6.88;3.33;;;9.70;74.10;;;;;;4116050;28;20040;-83
2022/09/12 05:34:14;;;;;;;5.93;2.78;;;9.70;74.40;;;;;;4115012;28;20403;-84
2022/09/12 05:36:28;;;;;;;7.72;2.60;;;9.70;74.60;;;;;;4118618;28;20034;-83
2022/09/12 05:38:29;;;;;;;4.70;2.63;;;9.80;75.10;;;;;;4119562;28;20552;-84
2022/09/12 05:40:29;;;;;;;4.22;2.70;;;9.90;75.20;;;;;;4112846;28;20025;-83
2022/09/12 05:42:30;;;;;;;8.50;2.80;;;9.90;75.20;;;;;;4117456;28;20519;-84
2022/09/12 05:44:32;;;;;;;7.40;3.00;;;9.90;75.30;;;;;;4133275;28;20029;-84
2022/09/12 05:46:38;;;;;;;3.83;2.80;;;10.00;75.50;;;;;;4117445;28;20131;-85
2022/09/12 05:48:41;;;;;;;5.38;3.40;;;10.00;75.60;;;;;;4121694;28;20158;-85
2022/09/12 05:50:42;;;;;;;7.30;3.75;;;10.10;75.80;;;;;;4131805;28;20036;-83
2022/09/12 05:52:43;;;;;;;7.97;4.00;;;10.20;76.00;;;;;;4121640;28;20054;-85
2022/09/12 05:54:43;;;;;;;5.07;3.63;;;10.30;76.10;;;;;;4103040;28;20406;-83
2022/09/12 05:56:45;;;;;;;9.68;4.55;;;10.30;76.30;;;;;;4114514;28;20115;-84
2022/09/12 05:58:51;;;;;;;8.05;4.07;;;10.40;76.60;;;;;;4120759;28;20051;-83
2022/09/12 06:00:52;;;;;;;10.15;5.30;;;10.40;76.80;;;;;;4108042;28;20019;-84
2022/09/12 06:02:52;;;;;;;9.85;5.20;;;10.50;77.20;;;;;;4127074;28;20585;-83
2022/09/12 06:04:53;;;;;;;9.52;5.97;;;10.60;77.50;;;;;;4120949;28;20034;-84
2022/09/12 06:06:54;;;;;;;9.50;5.93;;;10.70;77.90;;;;;;4120445;28;20049;-84
2022/09/12 06:09:00;;;;;;;8.73;6.07;;;10.80;78.20;;;;;;4120725;28;20030;-82
2022/09/12 06:11:04;;;;;;;11.95;6.28;;;10.90;78.60;;;;;;4124623;28;20035;-84
2022/09/12 06:13:05;;;;;;;10.65;6.43;;;11.00;78.90;;;;;;4121813;28;20087;-84
2022/09/12 06:15:06;;;;;;;8.63;6.18;;;11.10;79.10;;;;;;4106816;28;20505;-83
2022/09/12 06:17:07;;;;;;;13.50;7.65;;;11.20;79.40;;;;;;4121629;28;20030;-84
2022/09/12 06:19:17;;;;;;;10.98;7.05;;;11.30;79.60;;;;;;4119433;28;20034;-83
2022/09/12 06:21:19;;;;;;;11.77;7.03;;;11.40;80.10;;;;;;4118279;28;20038;-83
2022/09/12 06:23:19;;;;;;;15.82;6.28;;;11.60;80.10;;;;;;4117719;28;20042;-84
2022/09/12 06:25:21;;;;;;;10.77;5.88;;;11.60;80.30;;;;;;4133158;28;20030;-83
2022/09/12 06:27:21;;;;;;;9.13;6.20;;;11.70;80.40;;;;;;4120049;28;20041;-83
2022/09/12 06:29:22;;;;;;;10.70;6.50;;;11.80;80.50;;;;;;4135495;28;20045;-84
2022/09/12 06:31:26;;;;;;;7.95;5.43;;;12.00;80.70;;;;;;4118743;28;20042;-84
2022/09/12 06:33:27;;;;;;;8.48;5.65;;;12.10;80.80;;;;;;4121430;28;20046;-84
2022/09/12 06:35:27;;;;;;;7.55;5.05;;;12.10;80.80;;;;;;4120818;28;20406;-84
2022/09/12 06:37:28;;;;;;;6.38;4.38;;;12.20;80.90;;;;;;4118646;28;20117;-84
2022/09/12 06:39:30;;;;;;;7.57;4.40;;;12.40;81.00;;;;;;4124417;28;20140;-84
2022/09/12 06:41:31;;;;;;;8.07;4.57;;;12.40;80.90;;;;;;4134158;28;20042;-85
2022/09/12 06:43:33;;;;;;;7.40;4.30;;;12.50;80.80;;;;;;4125360;28;20026;-85
2022/09/12 06:45:33;;;;;;;10.15;4.45;;;12.60;80.90;;;;;;4141294;28;20030;-84
2022/09/12 06:47:34;;;;;;;6.93;4.53;;;12.70;80.80;;;;;;4118141;28;20038;-84
2022/09/12 06:49:35;;;;;;;6.25;4.18;;;12.80;80.80;;;;;;4133175;28;20034;-83
2022/09/12 06:51:36;;;;;;;7.28;3.97;;;12.90;80.80;;;;;;4135228;28;20084;-80
2022/09/12 06:53:37;;;;;;;7.65;4.30;;;12.90;80.70;;;;;;4124243;28;20034;-84
2022/09/12 06:55:37;;;;;;;6.85;4.18;;;13.00;80.80;;;;;;4119966;28;20112;-84
2022/09/12 06:57:38;;;;;;;6.57;4.22;;;13.10;80.80;;;;;;4125278;28;20058;-84
2022/09/12 06:59:39;;;;;;;7.90;3.80;;;13.20;80.70;;;;;;4124395;28;20026;-83
2022/09/12 07:01:40;;;;;;;9.68;4.13;;;13.30;80.70;;;;;;4109728;28;20031;-83
2022/09/12 07:03:43;;;;;;;5.18;3.90;;;13.40;80.70;;;;;;4115999;28;20025;-84
2022/09/12 07:05:45;;;;;;;9.03;4.13;;;13.40;80.60;;;;;;4119552;28;20408;-83
2022/09/12 07:07:45;;;;;;;6.75;3.58;;;13.50;80.40;;;;;;4118543;28;20102;-83
2022/09/12 07:09:46;;;;;;;5.18;3.50;;;13.60;80.30;;;;;;4115068;28;20034;-84
2022/09/12 07:11:46;;;;;;;4.68;3.40;;;13.70;80.20;;;;;;4113276;28;20034;-84
2022/09/12 07:13:49;;;;;;;4.72;3.35;;;13.80;80.10;;;;;;4114672;28;20114;-84
2022/09/12 07:15:51;;;;;;;6.07;3.58;;;13.80;79.80;;;;;;4116984;28;20039;-84
2022/09/12 07:17:51;;;;;;;7.43;3.38;;;13.90;79.70;;;;;;4130439;28;20462;-84
2022/09/12 07:19:52;;;;;;;5.45;3.15;;;14.00;79.40;;;;;;4114595;28;20053;-83
2022/09/12 07:21:52;;;;;;;3.85;2.92;;;14.00;79.10;;;;;;4115793;28;20089;-85
2022/09/12 07:23:59;;;;;;;4.70;3.05;;;14.10;78.90;;;;;;4117183;28;20466;-82
2022/09/12 07:26:00;;;;;;;4.35;3.00;;;14.10;78.50;;;;;;4116438;28;20479;-83
2022/09/12 07:28:01;;;;;;;6.13;3.40;;;14.30;78.40;;;;;;4116773;28;20034;-85
2022/09/12 07:30:04;;;;;;;7.47;3.75;;;14.30;78.30;;;;;;4121220;28;20454;-85
2022/09/12 07:32:05;;;;;;;4.28;2.88;;;14.30;78.00;;;;;;4115798;28;20033;-85
2022/09/12 07:34:06;;;;;;;4.75;3.33;;;14.40;77.90;;;;;;4134684;28;20116;-85
2022/09/12 07:36:11;;;;;;;5.75;3.20;;;14.50;77.80;;;;;;4113200;28;20030;-84
2022/09/12 07:38:11;;;;;;;4.90;3.30;;;14.60;77.60;;;;;;4116812;28;20105;-83
2022/09/12 07:40:12;;;;;;;5.57;2.40;;;14.60;77.40;;;;;;4116888;28;20085;-84
2022/09/12 07:42:13;;;;;;;4.45;2.90;;;14.70;77.30;;;;;;4119077;28;20019;-83
2022/09/12 07:44:14;;;;;;;7.07;2.85;;;14.80;77.30;;;;;;4117769;28;20119;-84
2022/09/12 07:46:15;;;;;;;4.00;2.95;;;15.00;77.20;;;;;;4129525;28;20137;-85
2022/09/12 07:48:16;;;;;;;4.53;2.70;;;15.00;76.70;;;;;;4111657;28;20029;-85
2022/09/12 07:50:17;;;;;;;4.53;2.55;;;15.10;76.40;;;;;;4113333;28;20034;-85
2022/09/12 07:52:17;;;;;;;6.47;2.30;;;15.20;76.10;;;;;;4119014;28;20031;-84
2022/09/12 07:54:18;;;;;;;5.13;2.17;;;15.30;75.80;;;;;;4116168;28;20027;-86
2022/09/12 07:56:20;;;;;;;5.63;2.28;;;15.40;75.40;;;;;;4113745;28;20039;-85
2022/09/12 07:58:24;;;;;;;6.13;2.28;;;15.50;75.10;;;;;;4117859;28;20050;-85
2022/09/12 08:00:26;;;;;;;7.15;2.47;;;15.60;74.70;;;;;;4112804;28;20050;-85
2022/09/12 08:02:26;;;;;;;3.17;2.10;;;15.70;74.10;;;;;;4114308;28;20023;-85
2022/09/12 08:04:27;;;;;;;8.10;2.13;;;15.80;73.60;;;;;;4123432;28;20118;-86
2022/09/12 08:06:31;;;;;;;3.35;1.80;;;15.90;73.20;;;;;;4099826;28;20122;-86
2022/09/12 08:08:32;;;;;;;3.78;1.85;;;16.00;72.80;;;;;;4115582;28;20049;-87
2022/09/12 08:10:32;;;;;;;3.35;1.80;;;16.10;72.30;;;;;;4114541;28;20034;-85
2022/09/12 08:12:33;;;;;;;3.63;2.08;;;16.10;71.80;;;;;;4116473;28;20035;-86
2022/09/12 08:14:34;;;;;;;3.83;2.05;;;16.20;71.30;;;;;;4116055;28;20483;-86
2022/09/12 08:16:35;;;;;;;4.43;1.98;;;16.30;71.00;;;;;;4112993;28;20085;-86
2022/09/12 08:18:35;;;;;;;3.65;1.90;;;16.40;70.50;;;;;;4118998;28;20027;-86
2022/09/12 08:20:36;;;;;;;6.53;1.70;;;16.50;70.20;;;;;;4112301;28;20076;-86
2022/09/12 08:22:38;;;;;;;3.65;1.58;;;16.60;69.70;;;;;;4107464;28;20031;-86
2022/09/12 08:24:39;;;;;;;2.38;1.73;;;16.60;69.60;;;;;;4109636;28;20026;-84
2022/09/12 08:26:40;;;;;;;3.60;1.95;;;16.70;69.30;;;;;;4105890;28;20033;-84
2022/09/12 08:28:44;;;;;;;2.28;1.70;;;16.80;68.60;;;;;;4113232;28;20034;-87
2022/09/12 08:30:45;;;;;;;4.40;2.10;;;16.90;68.10;;;;;;4112788;28;20035;-85
2022/09/12 08:32:46;;;;;;;3.95;2.10;;;16.90;67.50;;;;;;4118455;28;20392;-85
2022/09/12 08:34:46;;;;;;;5.18;2.03;;;17.00;67.60;;;;;;4120053;28;20146;-85
2022/09/12 08:36:47;;;;;;;2.58;1.83;;;17.10;67.40;;;;;;4118456;28;20033;-85
2022/09/12 08:38:53;;;;;;;2.67;1.85;;;17.10;67.90;;;;;;4115251;28;20030;-87
2022/09/12 08:41:04;;;;;;;3.08;1.52;;;17.20;67.00;;;;;;4111680;28;20058;-85
2022/09/12 08:43:32;;;;;;;2.58;1.70;;;17.30;66.70;;;;;;4116421;28;20019;-86
2022/09/12 08:45:45;;;;;;;3.10;2.17;;;17.40;65.50;;;;;;4112331;28;20104;-86
2022/09/12 08:47:47;;;;;;;7.43;1.80;;;17.50;65.50;;;;;;4115783;28;20791;-86
2022/09/12 08:50:09;;;;;;;2.85;1.70;;;17.50;65.20;;;;;;4115826;28;20495;-86
2022/09/12 08:52:21;;;;;;;3.45;1.67;;;17.60;64.80;;;;;;4115302;28;20038;-88
2022/09/12 08:54:27;;;;;;;4.38;1.80;;;17.70;64.70;;;;;;4116102;28;20031;-86
2022/09/12 08:56:37;;;;;;;4.32;1.65;;;17.70;64.40;;;;;;4122494;28;20030;-85
2022/09/12 08:58:43;;;;;;;3.90;1.60;;;17.80;64.20;;;;;;4114699;28;20019;-86
2022/09/12 09:01:06;;;;;;;3.17;1.85;;;17.80;64.50;;;;;;4121285;28;20030;-86
2022/09/12 09:03:22;;;;;;;3.10;2.03;;;17.90;63.20;;;;;;4120466;28;20026;-87
2022/09/12 09:05:44;;;;;;;4.88;1.80;;;18.00;63.30;;;;;;4123557;28;20026;-86
2022/09/12 09:07:51;;;;;;;8.63;2.10;;;18.00;63.00;;;;;;4122138;28;20030;-85
2022/09/12 09:10:20;;;;;;;5.22;1.83;;;18.10;63.10;;;;;;4135762;28;20033;-86
2022/09/12 09:12:38;;;;;;;8.52;1.92;;;18.20;62.60;;;;;;4074294;29;20182;-87
2022/09/12 09:14:59;;;;;;;2.50;1.70;;;18.20;63.00;;;;;;4074705;29;20043;-86
2022/09/12 09:17:01;;;;;;;2.28;1.75;;;18.30;62.70;;;;;;4080244;29;20036;-86
2022/09/12 09:19:10;;;;;;;5.18;2.08;;;18.30;62.80;;;;;;4072216;29;20023;-86
2022/09/12 09:21:36;;;;;;;3.20;1.90;;;18.40;62.60;;;;;;4088632;29;20027;-86
2022/09/12 09:23:52;;;;;;;3.47;2.25;;;18.40;61.90;;;;;;4082677;29;20039;-86
2022/09/12 09:25:57;;;;;;;3.28;1.90;;;18.50;61.70;;;;;;4089843;28;20023;-87
2022/09/12 09:28:08;;;;;;;6.05;2.08;;;18.60;62.30;;;;;;4068425;29;20138;-88
2022/09/12 09:30:14;;;;;;;3.33;1.80;;;18.60;62.30;;;;;;4068951;29;20063;-87
2022/09/12 09:32:25;;;;;;;7.30;1.73;;;18.70;62.50;;;;;;4064813;29;20047;-87
2022/09/12 09:34:30;;;;;;;3.15;2.15;;;18.80;62.40;;;;;;4084466;28;20030;-87
2022/09/12 09:36:42;;;;;;;5.35;1.83;;;18.80;62.40;;;;;;4081447;28;20680;-86
2022/09/12 09:39:02;;;;;;;4.40;2.00;;;18.90;61.90;;;;;;4086045;28;20031;-86
2022/09/12 09:41:28;;;;;;;4.10;2.00;;;18.90;62.00;;;;;;4072115;29;20032;-86
2022/09/12 09:43:30;;;;;;;3.80;2.38;;;19.00;61.20;;;;;;4088353;28;20086;-85
2022/09/12 09:45:31;;;;;;;2.88;2.03;;;19.10;61.60;;;;;;4089894;28;20035;-86
2022/09/12 09:47:31;;;;;;;7.28;2.45;;;19.10;61.20;;;;;;4093353;28;20427;-86
2022/09/12 09:49:34;;;;;;;3.45;2.30;;;19.20;61.10;;;;;;4108208;28;20047;-88
2022/09/12 09:51:38;;;;;;;3.42;1.95;;;19.30;61.20;;;;;;4115192;28;20038;-86
2022/09/12 09:53:52;;;;;;;2.70;1.95;;;19.30;61.10;;;;;;4121486;28;20026;-87
2022/09/12 09:55:55;;;;;;;5.75;2.30;;;19.40;60.60;;;;;;4119606;28;20501;-87
2022/09/12 09:57:56;;;;;;;3.70;2.13;;;19.40;60.30;;;;;;4129097;28;20033;-87
2022/09/12 09:59:57;;;;;;;3.15;1.77;;;19.50;59.80;;;;;;4120626;28;20037;-86
2022/09/12 10:02:02;;;;;;;4.47;2.05;;;19.50;59.80;;;;;;4115790;28;20041;-87
2022/09/12 10:04:03;;;;;;;4.95;1.80;;;19.60;59.50;;;;;;4115459;28;20026;-88
2022/09/12 10:06:22;;;;;;;3.60;1.98;;;19.60;59.30;;;;;;4117838;28;20073;-86
2022/09/12 10:08:25;;;;;;;2.70;1.75;;;19.60;58.70;;;;;;4136692;23;20038;-84
2022/09/12 10:10:25;;;;;;;4.85;1.70;;;19.60;59.00;;;;;;4123468;28;20427;-82
2022/09/12 10:12:27;;;;;;;2.45;1.73;;;19.70;58.90;;;;;;4126920;28;20035;-83
2022/09/12 10:14:38;;;;;;;4.57;2.05;;;19.70;58.60;;;;;;4103175;28;20129;-82
2022/09/12 10:16:52;;;;;;;2.95;1.65;;;19.70;58.40;;;;;;4118357;28;20045;-84
2022/09/12 10:18:58;;;;;;;3.17;1.73;;;19.70;58.00;;;;;;4128134;28;20736;-84
2022/09/12 10:21:00;;;;;;;5.80;1.67;;;19.80;58.30;;;;;;4122774;28;21064;-84
2022/09/12 10:23:18;;;;;;;3.33;1.50;;;19.80;58.40;;;;;;4125618;28;20022;-84
2022/09/12 10:25:20;;;;;;;6.80;1.58;;;19.80;58.10;;;;;;4124825;28;20128;-83
2022/09/12 10:27:24;;;;;;;3.85;1.50;;;19.90;58.00;;;;;;4136652;28;20022;-85
2022/09/12 10:29:31;;;;;;;2.40;1.60;;;19.90;58.00;;;;;;4122468;28;20030;-83
2022/09/12 10:31:48;;;;;;;2.92;1.55;;;20.00;58.00;;;;;;4123928;28;20090;-84
2022/09/12 10:33:52;;;;;;;2.15;1.50;;;19.90;57.10;;;;;;4120519;28;20061;-83
2022/09/12 10:35:54;;;;;;;3.22;1.80;;;20.00;57.50;;;;;;4136182;28;20080;-82
2022/09/12 10:38:04;;;;;;;3.83;1.90;;;20.00;57.50;;;;;;4122245;28;20035;-83
2022/09/12 10:40:19;;;;;;;3.58;1.73;;;20.00;57.00;;;;;;4126252;28;20050;-84
2022/09/12 10:42:44;;;;;;;6.65;2.13;;;20.00;57.20;;;;;;4123992;28;20503;-83
2022/09/12 10:44:53;;;;;;;2.55;1.60;;;20.00;56.70;;;;;;4123887;28;20058;-83
2022/09/12 10:46:54;;;;;;;3.40;1.67;;;20.00;57.60;;;;;;4126230;28;20018;-84
2022/09/12 10:49:17;;;;;;;2.10;1.50;;;20.00;57.20;;;;;;4123875;28;20038;-83
2022/09/12 10:51:24;;;;;;;2.80;1.83;;;20.10;56.70;;;;;;4124527;28;20037;-84
2022/09/12 10:53:41;;;;;;;2.33;1.60;;;20.10;56.90;;;;;;4126265;28;20236;-83
2022/09/12 10:56:00;;;;;;;2.65;1.48;;;20.10;56.60;;;;;;4124332;28;20022;-84